createdAt,value
2022-09-27T00:00:43.026Z,1.10
2022-09-27T00:03:12.139Z,1.05
2022-09-27T00:05:39.508Z,1.27
2022-09-27T00:08:06.332Z,1.38
2022-09-27T00:10:32.838Z,0.95
2022-09-27T00:12:59.925Z,1.20
2022-09-27T00:15:26.907Z,1.10
2022-09-27T00:17:53.591Z,1.27
2022-09-27T00:20:21.132Z,0.90
2022-09-27T00:22:49.078Z,1.13
2022-09-27T00:25:16.850Z,1.35
2022-09-27T00:27:43.358Z,1.23
2022-09-27T00:30:11.013Z,1.27
2022-09-27T00:32:37.896Z,1.30
2022-09-27T00:35:05.192Z,1.67
2022-09-27T00:37:32.269Z,1.15
2022-09-27T00:39:58.735Z,1.23
2022-09-27T00:42:25.342Z,1.20
2022-09-27T00:45:15.496Z,1.20
2022-09-27T00:48:05.660Z,1.40
2022-09-27T00:50:56.071Z,1.20
2022-09-27T00:53:49.390Z,1.15
2022-09-27T00:56:37.254Z,0.88
2022-09-27T00:59:28.516Z,1.17
2022-09-27T01:01:56.447Z,0.70
2022-09-27T01:04:27.106Z,1.02
2022-09-27T01:06:54.244Z,1.10
2022-09-27T01:09:22.863Z,0.90
2022-09-27T01:12:19.879Z,0.93
2022-09-27T01:15:13.724Z,0.70
2022-09-27T01:17:40.587Z,1.25
2022-09-27T01:20:07.066Z,0.80
2022-09-27T01:22:53.057Z,0.90
2022-09-27T01:25:47.685Z,0.90
2022-09-27T01:28:47.640Z,1.00
2022-09-27T01:31:42.861Z,1.30
2022-09-27T01:34:26.647Z,1.00
2022-09-27T01:37:04.885Z,1.20
2022-09-27T01:39:50.583Z,1.10
2022-09-27T01:42:37.031Z,0.82
2022-09-27T01:45:21.734Z,0.73
2022-09-27T01:48:03.133Z,1.45
2022-09-27T01:51:04.815Z,1.42
2022-09-27T01:53:43.895Z,1.10
2022-09-27T01:56:47.849Z,0.90
2022-09-27T02:02:12.099Z,0.98
2022-09-27T02:05:01.082Z,1.10
2022-09-27T02:07:38.118Z,0.90
2022-09-27T02:10:14.505Z,0.90
2022-09-27T02:13:02.851Z,1.25
2022-09-27T02:15:48.547Z,1.00
2022-09-27T02:18:35.052Z,1.05
2022-09-27T02:21:07.450Z,1.15
2022-09-27T02:23:46.294Z,1.20
2022-09-27T02:26:24.227Z,1.17
2022-09-27T02:29:02.595Z,1.20
2022-09-27T02:31:35.157Z,1.20
2022-09-27T02:34:27.514Z,1.08
2022-09-27T02:36:54.603Z,1.00
2022-09-27T02:39:21.916Z,1.45
2022-09-27T02:41:58.515Z,1.30
2022-09-27T02:44:26.863Z,0.95
2022-09-27T02:47:15.015Z,1.27
2022-09-27T02:50:13.481Z,1.27
2022-09-27T02:53:20.357Z,1.63
2022-09-27T02:56:07.653Z,1.60
2022-09-27T02:59:17.493Z,1.48
2022-09-27T03:02:14.496Z,1.33
2022-09-27T03:05:10.779Z,1.38
2022-09-27T03:07:38.859Z,1.10
2022-09-27T03:10:07.955Z,1.45
2022-09-27T03:12:34.967Z,1.35
2022-09-27T03:15:01.821Z,2.10
2022-09-27T03:17:47.226Z,2.08
2022-09-27T03:20:32.957Z,1.80
2022-09-27T03:23:11.302Z,1.77
2022-09-27T03:25:37.861Z,1.98
2022-09-27T03:28:04.927Z,2.33
2022-09-27T03:30:32.115Z,1.83
2022-09-27T03:32:58.581Z,2.00
2022-09-27T03:35:44.023Z,2.20
2022-09-27T03:38:11.351Z,2.50
2022-09-27T03:40:39.501Z,2.25
2022-09-27T03:43:07.393Z,1.88
2022-09-27T03:45:33.986Z,2.20
2022-09-27T03:48:05.342Z,1.65
2022-09-27T03:50:32.003Z,1.90
2022-09-27T03:52:58.695Z,1.77
2022-09-27T03:55:26.284Z,1.83
2022-09-27T03:57:53.439Z,1.70
2022-09-27T04:00:20.609Z,1.50
2022-09-27T04:02:47.617Z,1.75
2022-09-27T04:05:27.036Z,1.60
2022-09-27T04:07:57.144Z,1.80
2022-09-27T04:10:24.493Z,1.83
2022-09-27T04:12:51.584Z,1.73
2022-09-27T04:15:21.088Z,1.80
2022-09-27T04:17:51.352Z,1.97
2022-09-27T04:20:34.201Z,1.60
2022-09-27T04:23:05.107Z,1.52
2022-09-27T04:25:34.645Z,1.70
2022-09-27T04:28:08.676Z,2.22
2022-09-27T04:30:35.728Z,1.80
2022-09-27T04:33:22.797Z,1.67
2022-09-27T04:36:26.731Z,1.70
2022-09-27T04:39:09.519Z,1.80
2022-09-27T04:41:42.568Z,1.77
2022-09-27T04:44:09.474Z,1.45
2022-09-27T04:46:36.143Z,1.35
2022-09-27T04:49:02.724Z,1.60
2022-09-27T04:51:31.270Z,1.60
2022-09-27T04:53:58.135Z,2.08
2022-09-27T04:56:30.427Z,1.65
2022-09-27T04:58:56.876Z,1.63
2022-09-27T05:01:24.244Z,1.75
2022-09-27T05:03:59.805Z,1.42
2022-09-27T05:06:28.506Z,1.27
2022-09-27T05:11:27.804Z,1.58
2022-09-27T05:14:14.029Z,1.70
2022-09-27T05:16:51.266Z,1.50
2022-09-27T05:19:43.935Z,1.38
2022-09-27T05:24:44.336Z,1.70
2022-09-27T05:27:16.743Z,1.30
2022-09-27T05:29:43.350Z,1.10
2022-09-27T05:32:15.207Z,1.60
2022-09-27T05:34:42.992Z,1.42
2022-09-27T05:37:10.157Z,1.10
2022-09-27T05:39:39.277Z,1.30
2022-09-27T05:42:08.477Z,1.27
2022-09-27T05:44:35.333Z,1.20
2022-09-27T05:47:04.462Z,1.10
2022-09-27T05:49:32.844Z,1.08
2022-09-27T05:52:01.214Z,1.20
2022-09-27T05:54:30.039Z,0.90
2022-09-27T05:56:59.137Z,1.00
2022-09-27T05:59:42.726Z,1.10
2022-09-27T06:02:21.442Z,0.90
2022-09-27T06:05:08.328Z,1.00
2022-09-27T06:07:37.868Z,0.88
2022-09-27T06:10:08.646Z,0.90
2022-09-27T06:12:35.708Z,0.95
2022-09-27T06:15:05.716Z,0.98
2022-09-27T06:17:37.147Z,0.90
2022-09-27T06:20:10.151Z,1.25
2022-09-27T06:22:37.302Z,1.00
2022-09-27T06:25:04.999Z,0.95
2022-09-27T06:27:36.012Z,0.93
2022-09-27T06:30:09.716Z,0.80
2022-09-27T06:32:45.383Z,0.80
2022-09-27T06:35:20.620Z,1.00
2022-09-27T06:37:47.440Z,0.90
2022-09-27T06:40:14.237Z,0.90
2022-09-27T06:42:53.483Z,0.93
2022-09-27T06:45:38.040Z,1.00
2022-09-27T06:48:23.309Z,0.82
2022-09-27T06:51:10.564Z,1.02
2022-09-27T06:53:37.091Z,1.17
2022-09-27T06:56:04.090Z,0.90
2022-09-27T06:58:59.953Z,1.20
2022-09-27T07:01:42.137Z,0.93
2022-09-27T07:04:29.188Z,1.35
2022-09-27T07:07:01.942Z,0.80
2022-09-27T07:09:34.707Z,0.77
2022-09-27T07:12:02.333Z,1.15
2022-09-27T07:14:30.319Z,0.90
2022-09-27T07:16:56.995Z,1.10
2022-09-27T07:19:26.620Z,1.10
2022-09-27T07:21:53.711Z,0.93
2022-09-27T07:24:20.185Z,1.35
2022-09-27T07:26:48.274Z,0.90
2022-09-27T07:29:16.902Z,0.80
2022-09-27T07:31:43.870Z,1.90
2022-09-27T07:34:11.231Z,1.40
2022-09-27T07:36:38.026Z,1.13
2022-09-27T07:39:04.647Z,1.02
2022-09-27T07:41:39.150Z,0.68
2022-09-27T07:44:08.036Z,1.00
2022-09-27T07:46:41.006Z,0.80
2022-09-27T07:49:17.638Z,0.73
2022-09-27T07:52:00.002Z,0.90
2022-09-27T07:54:50.055Z,1.10
2022-09-27T07:57:38.321Z,1.10
2022-09-27T08:00:07.794Z,0.82
2022-09-27T08:02:39.886Z,0.68
2022-09-27T08:05:07.834Z,1.02
2022-09-27T08:07:35.646Z,0.73
2022-09-27T08:10:02.720Z,0.80
2022-09-27T08:12:29.977Z,0.90
2022-09-27T08:15:01.159Z,0.80
2022-09-27T08:17:28.576Z,0.82
2022-09-27T08:20:17.885Z,0.88
2022-09-27T08:22:54.013Z,0.82
2022-09-27T08:25:33.337Z,0.70
2022-09-27T08:28:23.620Z,0.50
2022-09-27T08:31:08.938Z,0.65
2022-09-27T08:33:41.072Z,0.60
2022-09-27T08:36:12.640Z,0.60
2022-09-27T08:38:39.342Z,0.70
2022-09-27T08:41:16.918Z,0.60
2022-09-27T08:43:55.090Z,0.60
2022-09-27T08:46:25.452Z,0.68
2022-09-27T08:49:05.987Z,0.63
2022-09-27T08:51:35.159Z,0.50
2022-09-27T08:54:14.765Z,0.90
2022-09-27T08:56:41.303Z,0.60
2022-09-27T08:59:21.859Z,0.57
2022-09-27T09:01:50.490Z,0.88
2022-09-27T09:04:35.161Z,1.10
2022-09-27T09:07:24.873Z,0.90
2022-09-27T09:10:00.825Z,0.70
2022-09-27T09:12:55.948Z,0.82
2022-09-27T09:16:13.867Z,0.77
2022-09-27T09:19:24.396Z,0.70
2022-09-27T09:22:33.173Z,0.95
2022-09-27T09:25:24.519Z,0.60
2022-09-27T09:28:12.489Z,0.98
2022-09-27T09:30:44.839Z,0.80
2022-09-27T09:33:20.420Z,1.20
2022-09-27T09:36:05.531Z,0.75
2022-09-27T09:38:54.488Z,1.02
2022-09-27T09:41:28.717Z,1.30
2022-09-27T09:44:18.878Z,1.05
2022-09-27T09:46:50.158Z,0.98
2022-09-27T09:49:23.983Z,1.00
2022-09-27T09:51:59.650Z,1.00
2022-09-27T09:54:38.494Z,1.00
2022-09-27T09:57:14.436Z,0.90
2022-09-27T10:00:02.761Z,1.05
2022-09-27T10:02:35.209Z,1.00
2022-09-27T10:05:16.431Z,1.20
2022-09-27T10:07:43.447Z,1.20
2022-09-27T10:10:15.107Z,1.02
2022-09-27T10:12:55.076Z,1.02
2022-09-27T10:15:29.636Z,0.95
2022-09-27T10:17:58.997Z,1.40
2022-09-27T10:20:45.092Z,1.05
2022-09-27T10:23:25.066Z,1.10
2022-09-27T10:26:11.023Z,0.85
2022-09-27T10:28:47.602Z,1.20
2022-09-27T10:31:20.571Z,1.05
2022-09-27T10:34:05.662Z,1.08
2022-09-27T10:37:13.264Z,1.20
2022-09-27T10:39:52.047Z,1.52
2022-09-27T10:42:34.552Z,1.30
2022-09-27T10:45:21.262Z,1.30
2022-09-27T10:47:56.700Z,1.00
2022-09-27T10:50:50.207Z,1.02
2022-09-27T10:53:27.600Z,1.33
2022-09-27T10:56:05.049Z,1.30
2022-09-27T10:58:37.769Z,1.30
2022-09-27T11:01:08.951Z,1.05
2022-09-27T11:04:00.439Z,2.30
2022-09-27T11:06:32.633Z,1.27
2022-09-27T11:09:15.961Z,1.10
2022-09-27T11:11:45.356Z,1.02
2022-09-27T11:14:24.382Z,1.33
2022-09-27T11:17:09.939Z,1.30
2022-09-27T11:19:53.221Z,1.10
2022-09-27T11:22:29.593Z,1.38
2022-09-27T11:25:16.255Z,1.42
2022-09-27T11:28:12.176Z,1.40
2022-09-27T11:31:19.432Z,1.05
2022-09-27T11:34:02.292Z,1.65
2022-09-27T11:37:01.799Z,1.02
2022-09-27T11:39:53.297Z,1.15
2022-09-27T11:42:51.195Z,1.50
2022-09-27T11:46:03.209Z,1.40
2022-09-27T11:48:39.812Z,1.30
2022-09-27T11:51:26.491Z,1.13
2022-09-27T11:54:12.196Z,1.23
2022-09-27T11:56:53.312Z,1.38
2022-09-27T11:59:54.055Z,1.20
2022-09-27T12:02:32.293Z,1.48
2022-09-27T12:05:28.152Z,1.75
2022-09-27T12:08:33.406Z,1.63
2022-09-27T12:11:23.713Z,1.60
2022-09-27T12:14:02.672Z,1.65
2022-09-27T12:16:32.187Z,1.40
2022-09-27T12:19:02.270Z,1.10
2022-09-27T12:21:47.580Z,1.38
2022-09-27T12:24:20.662Z,1.20
2022-09-27T12:27:26.594Z,1.40
2022-09-27T12:29:56.291Z,1.20
2022-09-27T12:32:32.040Z,1.20
2022-09-27T12:35:07.066Z,1.10
2022-09-27T12:37:38.961Z,1.10
2022-09-27T12:40:29.080Z,1.33
2022-09-27T12:43:20.835Z,0.85
2022-09-27T12:46:58.657Z,0.65
2022-09-27T12:49:53.480Z,0.60
2022-09-27T12:52:27.362Z,0.95
2022-09-27T12:55:37.093Z,0.70
2022-09-27T12:58:34.530Z,0.80
2022-09-27T13:01:51.992Z,0.93
2022-09-27T13:04:24.438Z,0.80
2022-09-27T13:07:11.152Z,0.60
2022-09-27T13:10:15.438Z,0.77
2022-09-27T13:12:49.681Z,0.90
2022-09-27T13:15:28.498Z,0.88
2022-09-27T13:18:01.694Z,0.80
2022-09-27T13:20:42.488Z,1.10
2022-09-27T13:23:35.711Z,0.90
2022-09-27T13:26:07.825Z,0.95
2022-09-27T13:28:48.021Z,1.15
2022-09-27T13:31:58.791Z,0.70
2022-09-27T13:34:48.636Z,1.15
2022-09-27T13:37:28.995Z,1.10
2022-09-27T13:40:20.148Z,0.80
2022-09-27T13:43:13.474Z,0.75
2022-09-27T13:46:01.932Z,1.00
2022-09-27T13:48:47.698Z,1.27
2022-09-27T13:51:28.504Z,1.00
2022-09-27T13:54:00.955Z,1.42
2022-09-27T13:56:49.999Z,1.23
2022-09-27T13:59:37.777Z,0.90
2022-09-27T14:02:31.373Z,1.05
2022-09-27T14:05:01.385Z,0.82
2022-09-27T14:07:38.680Z,0.90
2022-09-27T14:10:07.312Z,1.70
2022-09-27T14:12:39.821Z,1.27
2022-09-27T14:15:19.186Z,1.10
2022-09-27T14:17:46.015Z,1.13
2022-09-27T14:20:52.039Z,0.68
2022-09-27T14:23:44.397Z,0.60
2022-09-27T14:26:24.635Z,0.90
2022-09-27T14:28:51.549Z,0.80
2022-09-27T14:31:27.045Z,1.08
2022-09-27T14:34:25.487Z,1.00
2022-09-27T14:37:11.792Z,1.33
2022-09-27T14:40:05.934Z,1.02
2022-09-27T14:42:36.574Z,1.10
2022-09-27T14:45:21.083Z,1.00
2022-09-27T14:47:49.824Z,1.55
2022-09-27T14:50:30.436Z,0.90
2022-09-27T14:55:29.170Z,1.38
2022-09-27T14:58:02.937Z,0.82
2022-09-27T15:00:33.854Z,0.88
2022-09-27T15:03:04.530Z,0.82
2022-09-27T15:05:35.545Z,1.00
2022-09-27T15:08:05.607Z,0.98
2022-09-27T15:10:35.102Z,0.73
2022-09-27T15:13:05.104Z,1.15
2022-09-27T15:15:38.096Z,1.15
2022-09-27T15:18:32.886Z,1.20
2022-09-27T15:21:00.702Z,1.30
2022-09-27T15:23:36.147Z,1.20
2022-09-27T15:26:14.819Z,1.30
2022-09-27T15:28:47.522Z,1.45
2022-09-27T15:31:15.400Z,1.95
2022-09-27T15:33:42.743Z,1.85
2022-09-27T15:36:12.773Z,1.75
2022-09-27T15:38:48.545Z,1.95
2022-09-27T15:41:17.675Z,1.52
2022-09-27T15:43:46.007Z,1.98
2022-09-27T15:46:34.317Z,1.45
2022-09-27T15:49:22.083Z,1.17
2022-09-27T15:51:50.964Z,1.40
2022-09-27T15:54:19.555Z,1.30
2022-09-27T15:56:48.535Z,1.80
2022-09-27T15:59:35.826Z,1.40
2022-09-27T16:02:11.240Z,1.13
2022-09-27T16:04:37.886Z,1.27
2022-09-27T16:07:08.843Z,1.20
2022-09-27T16:09:35.560Z,1.70
2022-09-27T16:12:02.532Z,1.27
2022-09-27T16:14:29.012Z,1.30
2022-09-27T16:17:00.797Z,1.13
2022-09-27T16:19:27.548Z,1.88
2022-09-27T16:21:53.911Z,1.30
2022-09-27T16:24:20.350Z,1.88
2022-09-27T16:26:47.093Z,1.75
2022-09-27T16:29:15.478Z,1.75
2022-09-27T16:31:42.815Z,1.52
2022-09-27T16:34:11.010Z,2.00
2022-09-27T16:36:39.005Z,1.83
2022-09-27T16:39:08.290Z,1.88
2022-09-27T16:41:35.869Z,1.58
2022-09-27T16:44:10.964Z,2.00
2022-09-27T16:46:41.689Z,2.33
2022-09-27T16:49:29.288Z,2.38
2022-09-27T16:51:59.532Z,2.33
2022-09-27T16:54:28.998Z,2.85
2022-09-27T16:56:56.758Z,2.60
2022-09-27T16:59:24.740Z,2.83
2022-09-27T17:01:52.200Z,2.97
2022-09-27T17:04:18.630Z,2.90
2022-09-27T17:06:45.241Z,2.70
2022-09-27T17:09:11.987Z,2.30
2022-09-27T17:11:38.695Z,2.10
2022-09-27T17:14:05.273Z,1.70
2022-09-27T17:16:52.685Z,1.40
2022-09-27T17:19:39.475Z,1.35
2022-09-27T17:22:26.478Z,0.90
2022-09-27T17:25:13.309Z,0.95
2022-09-27T17:28:00.086Z,1.30
2022-09-27T17:30:26.604Z,1.10
2022-09-27T17:32:53.303Z,1.35
2022-09-27T17:35:19.674Z,1.10
2022-09-27T17:37:46.494Z,1.00
2022-09-27T17:40:14.306Z,1.10
2022-09-27T17:42:40.854Z,1.70
2022-09-27T17:45:09.822Z,1.25
2022-09-27T17:47:55.220Z,1.50
2022-09-27T17:50:24.600Z,1.38
2022-09-27T17:52:52.099Z,1.20
2022-09-27T17:55:18.633Z,1.25
2022-09-27T17:57:47.871Z,1.10
2022-09-27T18:00:15.109Z,1.23
2022-09-27T18:02:42.135Z,1.25
2022-09-27T18:05:09.576Z,0.95
2022-09-27T18:07:37.615Z,1.40
2022-09-27T18:10:04.725Z,1.52
2022-09-27T18:12:34.827Z,0.98
2022-09-27T18:15:02.318Z,1.55
2022-09-27T18:17:28.908Z,1.50
2022-09-27T18:19:56.899Z,1.30
2022-09-27T18:22:28.231Z,1.40
2022-09-27T18:24:54.696Z,1.80
2022-09-27T18:27:21.200Z,1.80
2022-09-27T18:29:47.703Z,2.08
2022-09-27T18:32:14.415Z,1.83
2022-09-27T18:34:41.145Z,2.08
2022-09-27T18:37:31.172Z,1.90
2022-09-27T18:39:57.875Z,2.35
2022-09-27T18:42:24.482Z,2.50
2022-09-27T18:44:51.185Z,1.95
2022-09-27T18:47:17.614Z,1.48
2022-09-27T18:49:44.105Z,1.67
2022-09-27T18:52:10.588Z,1.60
2022-09-27T18:54:39.960Z,1.83
2022-09-27T18:57:06.726Z,1.90
2022-09-27T18:59:34.743Z,1.75
2022-09-27T19:02:01.192Z,1.90
2022-09-27T19:04:27.813Z,1.80
2022-09-27T19:06:56.987Z,1.40
2022-09-27T19:09:26.416Z,1.30
2022-09-27T19:11:52.808Z,1.63
2022-09-27T19:14:22.385Z,1.50
2022-09-27T19:16:49.360Z,1.70
2022-09-27T19:19:17.541Z,1.38
2022-09-27T19:21:45.537Z,1.75
2022-09-27T19:24:13.812Z,1.48
2022-09-27T19:26:40.353Z,1.48
2022-09-27T19:29:07.198Z,1.58
2022-09-27T19:31:35.461Z,1.50
2022-09-27T19:34:02.402Z,1.60
2022-09-27T19:36:29.215Z,1.63
2022-09-27T19:38:58.534Z,1.50
2022-09-27T19:41:26.191Z,1.67
2022-09-27T19:43:53.852Z,1.52
2022-09-27T19:46:21.851Z,1.65
2022-09-27T19:48:49.968Z,1.50
2022-09-27T19:51:22.194Z,1.48
2022-09-27T19:53:49.446Z,1.80
2022-09-27T19:56:16.415Z,1.48
2022-09-27T19:58:44.131Z,1.88
2022-09-27T20:01:16.318Z,2.08
2022-09-27T20:03:44.120Z,1.70
2022-09-27T20:06:15.815Z,1.85
2022-09-27T20:08:43.788Z,1.67
2022-09-27T20:11:13.049Z,1.75
2022-09-27T20:13:40.349Z,1.85
2022-09-27T20:16:07.778Z,1.35
2022-09-27T20:18:38.386Z,1.38
2022-09-27T20:23:33.332Z,1.70
2022-09-27T20:26:05.651Z,1.42
2022-09-27T20:28:32.070Z,1.27
2022-09-27T20:31:02.979Z,1.95
2022-09-27T20:33:43.880Z,1.98
2022-09-27T20:36:17.651Z,1.52
2022-09-27T20:38:46.987Z,1.80
2022-09-27T20:41:16.308Z,1.30
2022-09-27T20:43:47.039Z,1.50
2022-09-27T20:46:16.611Z,1.60
2022-09-27T20:48:44.722Z,1.10
2022-09-27T20:51:16.349Z,1.25
2022-09-27T20:53:44.985Z,1.30
2022-09-27T20:56:20.395Z,1.30
2022-09-27T20:58:48.939Z,0.90
2022-09-27T21:01:18.019Z,1.50
2022-09-27T21:03:45.255Z,1.38
2022-09-27T21:06:16.272Z,1.20
2022-09-27T21:08:43.444Z,1.50
2022-09-27T21:11:13.097Z,1.40
2022-09-27T21:13:41.023Z,1.00
2022-09-27T21:16:10.433Z,1.30
2022-09-27T21:18:39.758Z,1.23
2022-09-27T21:21:11.853Z,1.10
2022-09-27T21:23:44.366Z,1.80
2022-09-27T21:26:11.442Z,1.33
2022-09-27T21:28:43.805Z,1.20
2022-09-27T21:31:21.596Z,1.48
2022-09-27T21:33:53.317Z,1.45
2022-09-27T21:36:21.632Z,1.73
2022-09-27T21:38:48.236Z,1.70
2022-09-27T21:41:16.380Z,1.05
2022-09-27T21:43:44.432Z,1.30
2022-09-27T21:46:26.066Z,1.35
2022-09-27T21:48:55.656Z,1.00
2022-09-27T21:51:27.505Z,1.40
2022-09-27T21:53:56.409Z,1.10
2022-09-27T21:56:25.511Z,1.38
2022-09-27T21:58:52.184Z,1.08
2022-09-27T22:01:22.042Z,1.15
2022-09-27T22:03:50.172Z,0.98
2022-09-27T22:06:21.683Z,1.42
2022-09-27T22:08:49.770Z,1.10
2022-09-27T22:11:19.147Z,1.00
2022-09-27T22:13:46.239Z,1.02
2022-09-27T22:16:15.412Z,1.00
2022-09-27T22:18:46.518Z,1.30
2022-09-27T22:21:16.147Z,1.13
2022-09-27T22:23:43.087Z,1.02
2022-09-27T22:26:18.058Z,1.10
2022-09-27T22:28:46.430Z,1.10
2022-09-27T22:31:24.026Z,1.00
2022-09-27T22:33:59.058Z,0.80
2022-09-27T22:36:26.358Z,1.27
2022-09-27T22:38:53.661Z,1.00
2022-09-27T22:41:21.338Z,0.90
2022-09-27T22:43:48.360Z,1.40
2022-09-27T22:46:15.651Z,0.90
2022-09-27T22:48:42.771Z,0.80
2022-09-27T22:51:10.470Z,1.30
2022-09-27T22:53:37.633Z,1.55
2022-09-27T22:56:06.847Z,1.83
2022-09-27T22:58:35.022Z,1.33
2022-09-27T23:01:09.297Z,1.27
2022-09-27T23:03:36.098Z,1.08
2022-09-27T23:06:03.919Z,1.10
2022-09-27T23:08:35.599Z,1.38
2022-09-27T23:11:13.240Z,1.20
2022-09-27T23:13:41.856Z,1.30
2022-09-27T23:16:14.387Z,1.20
2022-09-27T23:18:41.944Z,1.15
2022-09-27T23:21:11.261Z,1.00
2022-09-27T23:23:44.618Z,1.02
2022-09-27T23:26:13.733Z,1.10
2022-09-27T23:28:41.223Z,1.00
2022-09-27T23:31:13.787Z,1.10
2022-09-27T23:33:47.597Z,1.10
2022-09-27T23:36:16.300Z,0.90
2022-09-27T23:38:45.802Z,1.25
2022-09-27T23:41:14.794Z,1.13
2022-09-27T23:43:41.585Z,1.13
2022-09-27T23:46:09.245Z,1.05
2022-09-27T23:48:37.227Z,1.20
2022-09-27T23:51:05.672Z,1.05
2022-09-27T23:53:32.825Z,1.20
2022-09-27T23:56:12.689Z,0.90
2022-09-27T23:58:41.518Z,1.05
